Time;durP1;ratioP1;P1;durP2;ratioP2;P2;SDS_P1;SDS_P2;PMS_P1;PMS_P2;Temp;Humidity;BMP_temperature;BMP_pressure;BME280_temperature;BME280_humidity;BME280_pressure;Samples;Min_cycle;Max_cycle;Signal;HPM_P1;HPM_P2
2021/03/29 00:00:20;;;;;;;4.70;2.63;;;11.40;1.00;;;;;;5055087;28;20307;-77
2021/03/29 00:02:46;;;;;;;5.83;3.00;;;11.40;1.00;;;;;;5057362;28;20558;-75
2021/03/29 00:05:14;;;;;;;4.73;2.83;;;11.40;1.00;;;;;;5058350;28;20479;-78
2021/03/29 00:07:43;;;;;;;3.60;2.43;;;11.40;1.00;;;;;;5056731;28;20547;-78
2021/03/29 00:10:11;;;;;;;4.10;2.60;;;11.50;1.00;;;;;;5059418;28;20910;-80
2021/03/29 00:12:41;;;;;;;4.30;2.40;;;11.50;1.00;;;;;;5055972;28;20651;-79
2021/03/29 00:15:12;;;;;;;3.83;2.30;;;11.50;1.00;;;;;;5048337;28;21355;-79
2021/03/29 00:17:40;;;;;;;6.20;2.73;;;11.50;1.00;;;;;;5061955;28;20288;-77
2021/03/29 00:20:10;;;;;;;8.93;3.67;;;11.50;1.00;;;;;;5059124;28;20961;-77
2021/03/29 00:22:37;;;;;;;3.57;2.37;;;11.50;1.00;;;;;;5078555;28;20555;-80
2021/03/29 00:25:05;;;;;;;6.73;3.37;;;11.40;1.00;;;;;;5063196;28;20456;-80
2021/03/29 00:27:31;;;;;;;4.97;2.97;;;11.40;1.00;;;;;;5063754;28;20522;-77
2021/03/29 00:29:58;;;;;;;5.47;2.70;;;11.40;1.00;;;;;;5068759;28;20220;-78
2021/03/29 00:32:26;;;;;;;5.67;2.87;;;11.50;1.00;;;;;;5082837;28;20447;-78
2021/03/29 00:34:54;;;;;;;6.30;2.40;;;11.50;1.00;;;;;;5075204;28;20432;-77
2021/03/29 00:37:21;;;;;;;7.10;2.90;;;11.50;1.00;;;;;;5070093;28;21390;-77
2021/03/29 00:39:48;;;;;;;5.43;2.80;;;11.40;1.00;;;;;;5080086;28;20504;-80
2021/03/29 00:42:16;;;;;;;7.53;3.47;;;11.40;1.00;;;;;;5076843;28;20505;-79
2021/03/29 00:44:43;;;;;;;5.97;2.60;;;11.40;1.00;;;;;;5073725;28;20447;-79
2021/03/29 00:47:10;;;;;;;3.73;2.77;;;11.40;1.00;;;;;;5073602;28;20405;-80
2021/03/29 00:49:37;;;;;;;6.60;2.70;;;11.40;1.00;;;;;;5082901;28;20457;-79
2021/03/29 00:52:05;;;;;;;5.27;3.17;;;11.40;1.00;;;;;;5080039;28;20458;-79
2021/03/29 00:54:32;;;;;;;5.63;3.27;;;11.40;1.00;;;;;;5065436;28;20447;-79
2021/03/29 00:56:58;;;;;;;9.07;2.97;;;11.40;1.00;;;;;;5065125;28;20530;-79
2021/03/29 00:59:25;;;;;;;6.90;2.83;;;11.40;1.00;;;;;;5060237;28;21482;-79
2021/03/29 01:01:52;;;;;;;4.10;2.77;;;11.40;1.00;;;;;;5060041;28;21421;-79
2021/03/29 01:04:19;;;;;;;6.63;3.77;;;11.40;1.00;;;;;;5062079;28;21547;-79
2021/03/29 01:06:48;;;;;;;5.85;2.85;;;11.30;1.00;;;;;;5059707;28;20435;-78
2021/03/29 01:09:18;;;;;;;7.53;3.23;;;11.40;1.00;;;;;;5061574;28;20224;-79
2021/03/29 01:11:51;;;;;;;4.70;2.73;;;11.40;1.00;;;;;;5060051;28;21663;-79
2021/03/29 01:14:21;;;;;;;5.95;2.95;;;11.40;1.00;;;;;;5064465;28;20981;-78
2021/03/29 01:16:49;;;;;;;5.53;2.50;;;11.40;1.00;;;;;;5061456;28;20243;-80
2021/03/29 01:19:24;;;;;;;5.60;3.33;;;11.40;1.00;;;;;;5062811;28;20577;-79
2021/03/29 01:22:02;;;;;;;6.13;3.00;;;11.40;1.00;;;;;;5064865;28;20480;-79
2021/03/29 01:24:36;;;;;;;5.10;2.40;;;11.40;1.00;;;;;;5067624;28;20470;-79
2021/03/29 01:27:06;;;;;;;3.55;2.67;;;11.30;1.00;;;;;;5083634;28;20406;-81
2021/03/29 01:29:34;;;;;;;4.60;2.80;;;11.30;1.00;;;;;;5089831;28;20255;-80
2021/03/29 01:32:05;;;;;;;4.85;2.80;;;11.30;1.00;;;;;;5073305;28;20468;-79
2021/03/29 01:34:34;;;;;;;6.93;3.83;;;11.30;1.00;;;;;;5069967;28;20227;-81
2021/03/29 01:37:02;;;;;;;3.10;2.37;;;11.20;1.00;;;;;;5070720;28;20479;-78
2021/03/29 01:39:29;;;;;;;6.87;3.10;;;11.20;1.00;;;;;;5072202;28;20519;-81
2021/03/29 01:41:56;;;;;;;3.63;2.70;;;11.20;1.00;;;;;;5076902;28;20424;-81
2021/03/29 01:44:25;;;;;;;6.90;3.15;;;11.20;1.00;;;;;;5083892;28;20519;-79
2021/03/29 01:46:51;;;;;;;9.43;3.13;;;11.20;1.00;;;;;;5089508;28;20217;-79
2021/03/29 01:49:19;;;;;;;3.70;2.80;;;11.20;1.00;;;;;;5090908;28;20427;-79
2021/03/29 01:51:46;;;;;;;4.60;3.10;;;11.20;1.00;;;;;;5090092;28;20420;-80
2021/03/29 01:54:13;;;;;;;5.80;2.80;;;11.20;1.00;;;;;;5085748;28;20444;-80
2021/03/29 01:56:39;;;;;;;7.38;2.60;;;11.30;1.00;;;;;;5085103;28;20431;-79
2021/03/29 01:59:05;;;;;;;6.00;2.80;;;11.30;1.00;;;;;;5080696;28;20228;-79
2021/03/29 02:01:32;;;;;;;8.90;3.27;;;11.30;1.00;;;;;;5079582;28;20542;-77
2021/03/29 02:03:59;;;;;;;7.87;2.57;;;11.30;1.00;;;;;;5081141;28;20444;-80
2021/03/29 02:06:26;;;;;;;7.27;3.30;;;11.30;1.00;;;;;;5075966;28;20507;-79
2021/03/29 02:08:55;;;;;;;5.47;2.70;;;11.30;1.00;;;;;;5070249;28;20544;-78
2021/03/29 02:11:22;;;;;;;6.43;3.60;;;11.30;1.00;;;;;;5081809;28;20460;-78
2021/03/29 02:13:52;;;;;;;5.33;2.80;;;11.30;1.00;;;;;;5073723;28;20455;-78
2021/03/29 02:16:18;;;;;;;3.67;3.33;;;11.20;1.00;;;;;;5065963;28;20531;-77
2021/03/29 02:18:48;;;;;;;5.70;3.00;;;11.30;1.00;;;;;;5060164;28;21364;-80
2021/03/29 02:21:17;;;;;;;7.40;3.23;;;11.30;1.00;;;;;;5061714;28;21259;-79
2021/03/29 02:23:49;;;;;;;5.77;3.03;;;11.30;1.00;;;;;;5061269;28;20909;-81
2021/03/29 02:26:18;;;;;;;3.83;2.57;;;11.30;1.00;;;;;;5068224;28;20462;-81
2021/03/29 02:28:45;;;;;;;5.53;3.20;;;11.30;1.00;;;;;;5058532;28;20454;-79
2021/03/29 02:31:12;;;;;;;6.70;3.00;;;11.10;1.00;;;;;;5065372;28;21304;-80
2021/03/29 02:33:39;;;;;;;7.28;3.03;;;11.10;1.00;;;;;;5066466;28;20456;-81
2021/03/29 02:36:07;;;;;;;4.75;3.08;;;11.00;1.00;;;;;;5056644;28;20227;-79
2021/03/29 02:38:34;;;;;;;8.00;3.63;;;10.90;1.00;;;;;;5058804;28;20252;-80
2021/03/29 02:41:01;;;;;;;8.40;2.95;;;10.80;1.00;;;;;;5054228;28;20500;-79
2021/03/29 02:43:28;;;;;;;10.73;3.25;;;10.80;1.00;;;;;;5061667;28;20299;-80
2021/03/29 02:45:56;;;;;;;4.35;3.17;;;10.80;1.00;;;;;;5057863;28;20997;-78
2021/03/29 02:48:25;;;;;;;6.88;3.40;;;10.80;1.00;;;;;;5070339;28;20221;-80
2021/03/29 02:50:54;;;;;;;8.27;3.50;;;10.80;1.00;;;;;;5068724;28;20220;-79
2021/03/29 02:53:24;;;;;;;6.07;3.23;;;10.80;1.00;;;;;;5064345;28;20473;-79
2021/03/29 02:55:52;;;;;;;4.63;3.05;;;10.80;1.00;;;;;;5057693;28;20444;-79
2021/03/29 02:58:22;;;;;;;5.33;2.77;;;10.80;1.00;;;;;;5053422;28;20226;-79
2021/03/29 03:00:49;;;;;;;13.10;3.60;;;10.90;1.00;;;;;;5054456;28;22811;-79
2021/03/29 03:03:15;;;;;;;4.65;3.20;;;10.90;1.00;;;;;;5059099;28;20507;-79
2021/03/29 03:05:45;;;;;;;4.17;2.83;;;10.80;1.00;;;;;;5061020;28;20233;-79
2021/03/29 03:08:11;;;;;;;5.70;3.17;;;10.80;1.00;;;;;;5078235;28;21151;-79
2021/03/29 03:10:39;;;;;;;6.40;3.50;;;10.80;1.00;;;;;;5056441;28;20455;-81
2021/03/29 03:13:07;;;;;;;4.67;3.10;;;10.80;1.00;;;;;;5056839;28;20561;-80
2021/03/29 03:15:36;;;;;;;7.30;3.90;;;10.80;1.00;;;;;;5053120;28;21763;-79
2021/03/29 03:18:04;;;;;;;5.57;3.50;;;10.70;1.00;;;;;;5058658;28;20271;-80
2021/03/29 03:20:32;;;;;;;5.90;3.35;;;10.70;1.00;;;;;;5057634;28;20518;-82
2021/03/29 03:23:00;;;;;;;7.15;3.55;;;10.70;1.00;;;;;;5054549;28;20243;-80
2021/03/29 03:25:28;;;;;;;10.50;3.92;;;10.80;1.00;;;;;;5060580;28;20274;-79
2021/03/29 03:27:56;;;;;;;6.60;3.13;;;10.80;1.00;;;;;;5055452;28;20317;-79
2021/03/29 03:30:25;;;;;;;3.73;3.07;;;10.90;1.00;;;;;;5058176;28;20501;-79
2021/03/29 03:32:52;;;;;;;5.10;3.80;;;10.90;1.00;;;;;;5055136;28;20478;-79
2021/03/29 03:35:21;;;;;;;7.55;3.63;;;10.90;1.00;;;;;;5058119;28;20490;-80
2021/03/29 03:37:51;;;;;;;5.93;3.37;;;11.00;1.00;;;;;;5058487;28;20224;-80
2021/03/29 03:40:20;;;;;;;10.90;3.43;;;11.00;1.00;;;;;;5057477;28;21279;-80
2021/03/29 03:42:48;;;;;;;5.32;3.28;;;11.00;1.00;;;;;;5058885;28;20558;-79
2021/03/29 03:45:16;;;;;;;4.23;3.40;;;11.00;1.00;;;;;;5057691;28;20227;-80
2021/03/29 03:47:43;;;;;;;7.80;2.93;;;11.00;1.00;;;;;;5066190;28;20422;-80
2021/03/29 03:50:13;;;;;;;6.00;3.10;;;11.00;1.00;;;;;;5058956;28;20450;-80
2021/03/29 03:52:41;;;;;;;4.32;3.22;;;11.00;1.00;;;;;;5064152;28;21777;-77
2021/03/29 03:55:09;;;;;;;7.57;3.90;;;11.00;1.00;;;;;;5056546;28;20753;-79
2021/03/29 03:57:36;;;;;;;8.43;4.63;;;11.00;1.00;;;;;;5062443;28;20305;-77
2021/03/29 04:00:09;;;;;;;7.23;3.60;;;11.00;1.00;;;;;;5059887;28;20455;-79
2021/03/29 04:02:37;;;;;;;4.63;3.50;;;11.00;1.00;;;;;;5059679;28;20526;-79
2021/03/29 04:05:04;;;;;;;6.40;3.42;;;11.00;1.00;;;;;;5059163;28;20935;-78
2021/03/29 04:07:31;;;;;;;6.70;4.00;;;11.00;1.00;;;;;;5069060;28;20361;-76
2021/03/29 04:09:59;;;;;;;5.57;3.27;;;11.10;1.00;;;;;;5072356;28;20479;-76
2021/03/29 04:12:25;;;;;;;5.93;3.47;;;11.10;1.00;;;;;;5078676;28;20450;-76
2021/03/29 04:14:52;;;;;;;4.45;3.10;;;11.00;1.00;;;;;;5063914;28;23828;-77
2021/03/29 04:17:18;;;;;;;6.10;3.40;;;11.00;1.00;;;;;;5075079;28;20225;-77
2021/03/29 04:19:45;;;;;;;6.20;3.43;;;11.00;1.00;;;;;;5068424;28;20408;-76
2021/03/29 04:22:11;;;;;;;5.43;3.60;;;10.90;1.00;;;;;;5064048;28;20438;-77
2021/03/29 04:24:37;;;;;;;9.47;3.40;;;10.90;1.00;;;;;;5066535;28;20944;-76
2021/03/29 04:27:04;;;;;;;4.93;3.43;;;10.90;1.00;;;;;;5062730;28;20599;-76
2021/03/29 04:29:30;;;;;;;5.90;4.17;;;10.90;1.00;;;;;;5061192;28;20474;-78
2021/03/29 04:31:57;;;;;;;8.03;4.20;;;10.90;1.00;;;;;;5058786;28;20444;-78
2021/03/29 04:34:23;;;;;;;6.00;3.53;;;10.90;1.00;;;;;;5065308;28;20436;-76
2021/03/29 04:36:50;;;;;;;9.13;3.80;;;10.80;1.00;;;;;;5071276;28;20451;-77
2021/03/29 04:39:16;;;;;;;6.43;4.00;;;10.80;1.00;;;;;;5063997;28;20885;-76
2021/03/29 04:41:42;;;;;;;8.57;3.30;;;10.80;1.00;;;;;;5068898;28;20467;-76
2021/03/29 04:44:09;;;;;;;6.45;3.50;;;10.80;1.00;;;;;;5066935;28;20330;-77
2021/03/29 04:46:37;;;;;;;26.85;8.75;;;10.90;1.00;;;;;;5073210;28;20281;-77
2021/03/29 04:49:03;;;;;;;6.60;4.20;;;10.90;1.00;;;;;;5076906;28;20736;-76
2021/03/29 04:51:29;;;;;;;7.55;3.25;;;10.90;1.00;;;;;;5057359;28;20463;-77
2021/03/29 04:53:56;;;;;;;9.25;4.05;;;10.90;1.00;;;;;;5057296;28;20252;-77
2021/03/29 04:56:23;;;;;;;5.28;3.10;;;10.90;1.00;;;;;;5055258;28;20251;-80
2021/03/29 04:58:49;;;;;;;8.20;3.60;;;10.90;1.00;;;;;;5056076;28;20244;-77
2021/03/29 05:01:15;;;;;;;5.57;3.72;;;10.90;1.00;;;;;;5060026;28;20225;-77
2021/03/29 05:03:41;;;;;;;11.02;4.13;;;10.90;1.00;;;;;;5057954;28;20255;-76
2021/03/29 05:06:08;;;;;;;6.97;3.30;;;10.90;1.00;;;;;;5065687;28;20218;-77
2021/03/29 05:08:35;;;;;;;5.10;3.53;;;10.80;1.00;;;;;;5049711;28;20511;-76
2021/03/29 05:11:02;;;;;;;6.67;3.87;;;10.80;1.00;;;;;;5055290;28;20488;-76
2021/03/29 05:13:28;;;;;;;89.70;19.67;;;10.80;1.00;;;;;;5061106;28;20424;-76
2021/03/29 05:15:54;;;;;;;11.63;5.20;;;10.80;1.00;;;;;;5046903;28;20547;-80
2021/03/29 05:18:21;;;;;;;9.93;4.63;;;10.80;1.00;;;;;;5049774;28;20462;-79
2021/03/29 05:20:47;;;;;;;11.90;4.50;;;10.80;1.00;;;;;;5049919;28;20473;-77
2021/03/29 05:23:14;;;;;;;5.90;3.73;;;10.80;1.00;;;;;;5055693;28;20612;-78
2021/03/29 05:25:40;;;;;;;7.13;4.00;;;10.80;1.00;;;;;;5062082;28;20442;-79
2021/03/29 05:28:07;;;;;;;6.30;4.40;;;10.80;1.00;;;;;;5063344;28;20529;-79
2021/03/29 05:30:33;;;;;;;13.60;4.00;;;10.80;1.00;;;;;;5053312;28;21185;-78
2021/03/29 05:32:59;;;;;;;10.70;5.00;;;10.80;1.00;;;;;;5050698;28;22747;-78
2021/03/29 05:35:26;;;;;;;7.70;4.87;;;10.90;1.00;;;;;;5053388;28;20781;-77
2021/03/29 05:37:52;;;;;;;12.13;5.00;;;10.90;1.00;;;;;;5050370;28;20531;-78
2021/03/29 05:40:19;;;;;;;5.97;3.80;;;11.00;1.00;;;;;;5054947;28;21116;-77
2021/03/29 05:42:46;;;;;;;6.33;3.93;;;11.10;1.00;;;;;;5052195;28;20481;-77
2021/03/29 05:45:14;;;;;;;9.27;4.93;;;11.10;1.00;;;;;;5053988;28;20470;-77
2021/03/29 05:47:41;;;;;;;9.93;5.00;;;11.10;1.00;;;;;;5056486;28;20454;-78
2021/03/29 05:50:10;;;;;;;6.30;4.23;;;11.20;1.00;;;;;;5052160;28;20478;-78
2021/03/29 05:52:37;;;;;;;8.93;4.90;;;11.20;1.00;;;;;;5060742;28;20525;-77
2021/03/29 05:55:04;;;;;;;7.90;4.23;;;11.20;1.00;;;;;;5059330;28;20995;-78
2021/03/29 05:57:39;;;;;;;12.13;4.07;;;11.20;1.00;;;;;;5063551;28;21641;-80
2021/03/29 06:00:45;;;;;;;10.40;4.90;;;11.20;1.00;;;;;;5069401;28;20452;-77
2021/03/29 06:03:24;;;;;;;9.40;4.78;;;11.10;1.00;;;;;;5047817;28;20456;-77
2021/03/29 06:05:53;;;;;;;7.37;4.73;;;11.10;1.00;;;;;;5050358;28;20229;-76
2021/03/29 06:08:20;;;;;;;6.53;4.63;;;11.10;1.00;;;;;;5056245;28;20468;-77
2021/03/29 06:10:49;;;;;;;9.33;4.60;;;11.20;1.00;;;;;;5055197;28;20498;-76
2021/03/29 06:13:17;;;;;;;7.30;4.40;;;11.20;1.00;;;;;;5052466;28;20586;-77
2021/03/29 06:15:45;;;;;;;9.27;4.40;;;11.20;1.00;;;;;;5058023;28;20444;-77
2021/03/29 06:18:13;;;;;;;8.60;4.77;;;11.20;1.00;;;;;;5058754;28;20508;-77
2021/03/29 06:21:00;;;;;;;6.70;4.63;;;11.20;1.00;;;;;;5055158;28;20507;-78
2021/03/29 06:23:27;;;;;;;12.30;5.90;;;11.20;1.00;;;;;;5058004;28;20463;-80
2021/03/29 06:26:16;;;;;;;9.10;4.50;;;11.20;1.00;;;;;;5054878;28;20220;-76
2021/03/29 06:28:42;;;;;;;7.50;4.17;;;11.20;1.00;;;;;;5063561;28;20510;-75
2021/03/29 06:31:24;;;;;;;10.33;5.53;;;11.30;1.00;;;;;;5054578;28;20964;-79
2021/03/29 06:33:52;;;;;;;11.23;6.10;;;11.40;1.00;;;;;;5054789;28;20511;-83
2021/03/29 06:36:31;;;;;;;8.87;5.23;;;11.50;1.00;;;;;;5064543;28;20463;-83
2021/03/29 06:39:11;;;;;;;10.43;5.13;;;11.60;1.00;;;;;;5062782;28;20477;-84
2021/03/29 06:41:38;;;;;;;7.13;4.73;;;11.70;1.00;;;;;;5061241;28;20528;-84
2021/03/29 06:44:05;;;;;;;10.83;4.57;;;11.90;1.00;;;;;;5062527;28;20423;-84
2021/03/29 06:46:32;;;;;;;9.37;4.40;;;12.00;1.00;;;;;;5065758;28;20539;-84
2021/03/29 06:49:01;;;;;;;38.00;10.23;;;12.10;1.00;;;;;;5061461;28;21507;-86
2021/03/29 06:51:32;;;;;;;17.97;5.17;;;12.10;1.00;;;;;;5067675;28;20582;-83
2021/03/29 06:54:02;;;;;;;77.73;14.43;;;12.20;1.00;;;;;;5068344;28;20949;-86
2021/03/29 06:56:32;;;;;;;9.10;4.60;;;12.20;1.00;;;;;;5062957;28;20454;-85
2021/03/29 06:59:08;;;;;;;10.13;3.70;;;12.40;1.00;;;;;;5068002;28;20458;-83
2021/03/29 07:01:37;;;;;;;13.20;4.93;;;12.50;1.00;;;;;;5064815;28;20444;-83
2021/03/29 07:04:07;;;;;;;11.43;4.40;;;12.50;1.00;;;;;;5067859;28;21044;-84
2021/03/29 07:06:35;;;;;;;9.60;4.10;;;12.60;1.00;;;;;;5063290;28;20448;-82
2021/03/29 07:09:05;;;;;;;9.70;4.50;;;12.70;1.00;;;;;;5063149;28;20443;-84
2021/03/29 07:11:32;;;;;;;9.07;4.20;;;12.70;1.00;;;;;;5063036;28;20426;-84
2021/03/29 07:13:59;;;;;;;7.37;3.90;;;12.80;1.00;;;;;;5069358;28;20451;-84
2021/03/29 07:16:27;;;;;;;8.07;3.83;;;12.70;1.00;;;;;;5085727;28;20456;-83
2021/03/29 07:18:57;;;;;;;6.13;3.77;;;12.70;1.00;;;;;;5064967;28;20448;-86
2021/03/29 07:21:24;;;;;;;5.90;3.90;;;12.70;1.00;;;;;;5058761;28;20465;-82
2021/03/29 07:23:52;;;;;;;6.13;4.10;;;12.80;1.00;;;;;;5063820;28;20452;-84
2021/03/29 07:26:23;;;;;;;8.07;4.40;;;12.90;1.00;;;;;;5063735;28;20467;-83
2021/03/29 07:28:50;;;;;;;7.43;4.27;;;12.90;1.00;;;;;;5064726;28;20464;-83
2021/03/29 07:31:38;;;;;;;11.80;5.00;;;12.90;1.00;;;;;;5064965;28;20509;-83
2021/03/29 07:34:05;;;;;;;10.13;4.13;;;12.90;1.00;;;;;;5064608;28;20443;-82
2021/03/29 07:36:40;;;;;;;9.50;4.53;;;13.00;1.00;;;;;;5072305;28;20456;-83
2021/03/29 07:39:08;;;;;;;5.73;4.07;;;13.00;1.00;;;;;;5073026;28;20475;-84
2021/03/29 07:41:35;;;;;;;10.87;4.70;;;13.10;1.00;;;;;;5065391;28;21005;-83
2021/03/29 07:44:12;;;;;;;8.60;4.07;;;13.20;1.00;;;;;;5071049;28;20423;-83
2021/03/29 07:46:40;;;;;;;8.87;4.07;;;13.20;1.00;;;;;;5072451;28;20427;-83
2021/03/29 07:49:41;;;;;;;7.87;4.17;;;13.40;1.00;;;;;;5064008;28;20458;-84
2021/03/29 07:52:28;;;;;;;7.73;4.60;;;13.60;1.00;;;;;;5058826;28;20703;-83
2021/03/29 07:54:57;;;;;;;6.57;4.07;;;13.70;1.00;;;;;;5071561;28;20418;-82
2021/03/29 07:58:10;;;;;;;7.47;4.30;;;13.60;1.00;;;;;;5067318;28;20449;-85
2021/03/29 08:00:49;;;;;;;9.10;4.40;;;13.60;1.00;;;;;;5064241;28;20482;-83
2021/03/29 08:03:35;;;;;;;8.60;5.07;;;13.70;1.00;;;;;;5062846;28;20554;-82
2021/03/29 08:06:01;;;;;;;6.40;4.13;;;13.90;1.00;;;;;;5067973;28;20404;-83
2021/03/29 08:08:41;;;;;;;6.57;4.53;;;14.00;1.00;;;;;;5073179;28;20448;-80
2021/03/29 08:11:10;;;;;;;5.17;3.80;;;14.10;1.00;;;;;;5058134;28;20470;-81
2021/03/29 08:13:39;;;;;;;6.27;4.33;;;14.20;1.00;;;;;;5056677;28;20470;-81
2021/03/29 08:16:07;;;;;;;7.27;4.00;;;14.30;1.00;;;;;;5058118;28;20535;-79
2021/03/29 08:19:14;;;;;;;11.40;4.70;;;14.40;1.00;;;;;;5058834;28;20425;-79
2021/03/29 08:21:51;;;;;;;5.77;3.67;;;14.50;1.00;;;;;;5062257;28;20406;-79
2021/03/29 08:24:26;;;;;;;9.43;4.13;;;14.60;1.00;;;;;;5061936;28;20430;-79
2021/03/29 08:26:55;;;;;;;5.50;3.70;;;14.40;1.00;;;;;;5066748;28;20451;-78
2021/03/29 08:29:30;;;;;;;6.33;3.13;;;14.50;1.00;;;;;;5080960;28;20447;-78
2021/03/29 08:32:06;;;;;;;9.13;4.00;;;14.60;1.00;;;;;;5075692;28;20419;-77
2021/03/29 08:34:35;;;;;;;5.80;3.80;;;14.60;1.00;;;;;;5081369;28;20441;-82
2021/03/29 08:37:03;;;;;;;10.90;4.00;;;14.80;1.00;;;;;;5081106;28;20512;-81
2021/03/29 08:39:35;;;;;;;5.13;3.33;;;15.00;1.00;;;;;;5086864;28;20422;-81
2021/03/29 08:42:04;;;;;;;8.87;2.90;;;15.10;1.00;;;;;;5077429;28;20996;-77
2021/03/29 08:44:31;;;;;;;6.72;3.20;;;15.10;1.00;;;;;;5073575;28;20413;-82
2021/03/29 08:46:57;;;;;;;7.17;3.40;;;15.20;1.00;;;;;;5074261;28;20275;-79
2021/03/29 08:49:25;;;;;;;6.30;3.37;;;15.20;1.00;;;;;;5074369;28;20479;-81
2021/03/29 08:51:53;;;;;;;6.73;3.40;;;15.30;1.00;;;;;;5068346;28;20484;-79
2021/03/29 08:54:20;;;;;;;6.90;3.50;;;15.50;1.00;;;;;;5064149;28;20471;-81
2021/03/29 08:56:49;;;;;;;9.20;4.27;;;15.60;1.00;;;;;;5063117;28;20456;-79
2021/03/29 08:59:17;;;;;;;6.80;2.90;;;15.70;1.00;;;;;;5080589;28;20512;-80
2021/03/29 09:01:43;;;;;;;7.90;3.17;;;15.90;1.00;;;;;;5069531;28;20428;-78
2021/03/29 09:04:11;;;;;;;7.57;3.20;;;16.00;1.00;;;;;;5074592;28;20424;-80
2021/03/29 09:06:37;;;;;;;8.23;3.30;;;16.00;1.00;;;;;;5064368;28;20559;-76
2021/03/29 09:09:16;;;;;;;6.37;3.80;;;16.10;1.00;;;;;;5065999;28;20449;-77
2021/03/29 09:11:44;;;;;;;4.63;2.63;;;16.10;1.00;;;;;;5051868;28;20485;-75
2021/03/29 09:14:10;;;;;;;6.23;3.17;;;16.00;1.00;;;;;;5061501;28;21336;-74
2021/03/29 09:16:38;;;;;;;8.40;3.10;;;16.10;1.00;;;;;;5063838;28;20529;-75
2021/03/29 09:19:15;;;;;;;4.47;2.67;;;16.30;1.00;;;;;;5055640;28;20474;-74
2021/03/29 09:21:42;;;;;;;6.40;2.87;;;16.50;1.00;;;;;;5056543;28;20502;-75
2021/03/29 09:24:20;;;;;;;8.70;3.03;;;16.70;1.00;;;;;;5075237;28;20429;-76
2021/03/29 09:26:59;;;;;;;3.33;3.03;;;16.80;1.00;;;;;;5077642;28;20445;-79
2021/03/29 09:29:33;;;;;;;4.70;3.23;;;16.60;1.00;;;;;;5074099;28;20440;-80
2021/03/29 09:32:05;;;;;;;7.03;3.70;;;16.60;1.00;;;;;;5081565;28;20472;-78
2021/03/29 09:34:32;;;;;;;5.13;3.57;;;16.60;1.00;;;;;;5085638;28;20415;-77
2021/03/29 09:36:58;;;;;;;12.00;3.57;;;16.70;1.00;;;;;;5082619;28;20444;-79
2021/03/29 09:39:29;;;;;;;7.10;3.43;;;16.80;1.00;;;;;;5077640;28;20504;-78
2021/03/29 09:41:56;;;;;;;8.37;4.13;;;17.00;1.00;;;;;;5073541;28;20439;-81
2021/03/29 09:44:29;;;;;;;7.00;3.00;;;17.20;1.00;;;;;;5070123;28;20447;-79
2021/03/29 09:47:01;;;;;;;5.33;2.60;;;17.90;1.00;;;;;;5074572;28;20428;-79
2021/03/29 09:49:47;;;;;;;5.13;2.90;;;18.80;1.00;;;;;;5066113;28;20497;-79
2021/03/29 09:52:13;;;;;;;7.37;2.90;;;19.70;1.00;;;;;;5087392;28;20401;-80
2021/03/29 09:54:45;;;;;;;6.97;2.97;;;20.90;1.00;;;;;;5060726;28;20492;-81
2021/03/29 09:57:14;;;;;;;5.40;3.47;;;22.00;1.00;;;;;;5065547;28;20457;-73
2021/03/29 09:59:43;;;;;;;4.00;2.50;;;22.70;1.00;;;;;;5051753;28;20449;-76
2021/03/29 10:02:16;;;;;;;7.00;3.50;;;23.30;1.00;;;;;;5060284;28;20460;-76
2021/03/29 10:04:45;;;;;;;23.90;8.10;;;23.50;1.00;;;;;;5052840;28;20466;-76
2021/03/29 10:07:14;;;;;;;12.47;4.23;;;23.00;1.00;;;;;;5046355;28;20452;-75
2021/03/29 10:09:41;;;;;;;4.60;3.30;;;22.40;1.00;;;;;;5057604;28;20468;-75
2021/03/29 10:12:08;;;;;;;5.73;2.70;;;22.10;1.00;;;;;;5062510;28;20461;-72
2021/03/29 10:14:36;;;;;;;5.53;3.00;;;22.20;1.00;;;;;;5060181;28;20477;-74
2021/03/29 10:17:13;;;;;;;4.90;2.93;;;21.60;1.00;;;;;;5072606;28;20447;-79
2021/03/29 10:19:40;;;;;;;7.07;3.90;;;21.20;1.00;;;;;;5067770;28;20436;-77
2021/03/29 10:22:11;;;;;;;5.43;3.10;;;20.90;1.00;;;;;;5065355;28;20531;-76
2021/03/29 10:24:56;;;;;;;10.33;3.50;;;20.10;1.00;;;;;;5057006;28;20452;-75
2021/03/29 10:27:23;;;;;;;6.23;3.60;;;20.30;1.00;;;;;;5027311;28;20460;-76
2021/03/29 10:29:50;;;;;;;5.17;3.40;;;20.40;1.00;;;;;;5045790;28;21317;-75
2021/03/29 10:32:18;;;;;;;5.27;2.90;;;20.50;1.00;;;;;;5042804;28;20595;-75
2021/03/29 10:34:49;;;;;;;8.10;4.00;;;20.20;1.00;;;;;;5050528;28;20415;-77
2021/03/29 10:37:22;;;;;;;6.13;3.20;;;20.20;1.00;;;;;;5042270;28;20479;-76
2021/03/29 10:39:49;;;;;;;6.13;2.53;;;20.20;1.00;;;;;;5056651;28;20456;-76
2021/03/29 10:42:17;;;;;;;8.10;3.37;;;19.80;1.00;;;;;;5058336;27;20504;-75
2021/03/29 10:44:43;;;;;;;10.10;3.37;;;19.60;1.00;;;;;;5062772;28;20538;-78
2021/03/29 10:47:10;;;;;;;7.53;3.17;;;19.50;1.00;;;;;;5048862;28;20411;-77
2021/03/29 10:49:36;;;;;;;9.00;3.80;;;19.20;1.00;;;;;;5058744;28;20463;-79
2021/03/29 10:52:03;;;;;;;8.90;3.27;;;18.90;1.00;;;;;;5053868;28;20546;-78
2021/03/29 10:54:30;;;;;;;3.87;2.60;;;18.40;1.00;;;;;;5059598;28;20464;-77
2021/03/29 10:56:56;;;;;;;5.13;3.00;;;17.80;1.00;;;;;;5048097;28;20545;-77
2021/03/29 10:59:22;;;;;;;3.43;2.57;;;16.90;1.00;;;;;;5062905;28;20480;-76
2021/03/29 11:01:49;;;;;;;5.70;3.17;;;16.30;1.00;;;;;;5071447;28;20394;-75
2021/03/29 11:04:15;;;;;;;4.83;3.10;;;16.00;1.00;;;;;;5092033;28;20436;-75
2021/03/29 11:06:41;;;;;;;7.77;3.40;;;15.70;1.00;;;;;;5084997;28;21180;-73
2021/03/29 11:09:08;;;;;;;5.73;2.50;;;15.40;1.00;;;;;;5088770;28;20494;-75
2021/03/29 11:11:36;;;;;;;6.50;3.33;;;15.20;1.00;;;;;;5089202;28;20404;-79
2021/03/29 11:14:02;;;;;;;5.90;3.27;;;15.00;1.00;;;;;;5105636;27;20423;-80
2021/03/29 11:16:29;;;;;;;4.80;2.80;;;15.10;1.00;;;;;;5090843;28;20400;-80
2021/03/29 11:18:55;;;;;;;6.53;2.90;;;15.30;1.00;;;;;;5079539;28;20418;-79
2021/03/29 11:21:21;;;;;;;5.07;2.77;;;15.60;1.00;;;;;;5092032;28;20432;-81
2021/03/29 11:23:47;;;;;;;4.43;2.90;;;15.70;1.00;;;;;;5493986;22;20427;-80
2021/03/29 11:26:14;;;;;;;5.27;2.43;;;15.90;1.00;;;;;;5087947;27;20464;-79
2021/03/29 11:28:41;;;;;;;9.90;3.37;;;16.00;1.00;;;;;;5073840;28;20428;-79
2021/03/29 11:31:08;;;;;;;6.27;3.20;;;16.20;1.00;;;;;;5062833;28;20462;-78
2021/03/29 11:33:34;;;;;;;6.40;3.23;;;16.30;1.00;;;;;;5036539;28;20446;-77
2021/03/29 11:36:01;;;;;;;5.13;3.03;;;16.50;1.00;;;;;;5047312;28;20452;-80
2021/03/29 11:38:27;;;;;;;5.90;2.20;;;16.60;1.00;;;;;;5045287;28;21517;-79
2021/03/29 11:40:54;;;;;;;5.80;3.03;;;16.60;1.00;;;;;;5056583;28;20478;-77
2021/03/29 11:43:20;;;;;;;3.63;2.90;;;16.60;1.00;;;;;;5045000;28;20449;-78
2021/03/29 11:45:47;;;;;;;6.27;3.60;;;16.70;1.00;;;;;;5037638;28;20444;-78
2021/03/29 11:48:14;;;;;;;4.13;2.73;;;16.80;1.00;;;;;;5043067;28;22041;-78
2021/03/29 11:50:40;;;;;;;8.80;2.57;;;16.90;1.00;;;;;;5026463;28;20493;-78
2021/03/29 11:53:06;;;;;;;5.30;2.57;;;17.20;1.00;;;;;;5036050;28;20463;-79
2021/03/29 11:55:32;;;;;;;7.27;2.70;;;17.50;1.00;;;;;;5027194;28;20509;-79
2021/03/29 11:57:59;;;;;;;5.60;1.97;;;18.10;1.00;;;;;;5036422;28;20934;-78
2021/03/29 12:00:30;;;;;;;6.03;2.20;;;18.60;1.00;;;;;;5026010;28;20467;-79
2021/03/29 12:03:04;;;;;;;6.03;2.60;;;18.60;1.00;;;;;;5035443;28;20466;-79
2021/03/29 12:05:32;;;;;;;4.70;2.47;;;18.50;1.00;;;;;;5027910;28;20442;-78
2021/03/29 12:13:33;;;;;;;3.00;2.00;;;20.90;1.00;;;;;;5039380;28;20460;-79
2021/03/29 12:16:00;;;;;;;8.13;2.70;;;22.50;1.00;;;;;;5024946;28;20517;-79
2021/03/29 12:18:41;;;;;;;7.37;2.60;;;22.50;1.00;;;;;;5038412;28;20434;-77
2021/03/29 12:21:12;;;;;;;3.93;2.70;;;22.20;1.00;;;;;;5028093;28;20545;-78
2021/03/29 12:23:42;;;;;;;5.03;2.40;;;22.10;1.00;;;;;;5046572;28;20429;-77
2021/03/29 12:26:11;;;;;;;5.53;2.67;;;22.00;1.00;;;;;;5060535;28;20403;-78
2021/03/29 12:28:41;;;;;;;7.10;3.07;;;21.60;1.00;;;;;;5047740;28;20421;-78
2021/03/29 12:31:10;;;;;;;5.43;2.67;;;21.20;1.00;;;;;;5037938;28;20902;-78
2021/03/29 12:33:37;;;;;;;7.23;3.00;;;20.90;1.00;;;;;;5049237;28;20532;-78
2021/03/29 12:36:05;;;;;;;6.90;2.70;;;21.00;1.00;;;;;;5032536;28;20525;-78
2021/03/29 12:38:34;;;;;;;6.40;4.50;;;22.00;1.00;;;;;;5049317;28;20457;-78
2021/03/29 12:41:03;;;;;;;4.53;2.60;;;23.40;1.00;;;;;;5034788;28;20452;-78
2021/03/29 12:43:33;;;;;;;8.67;3.03;;;23.40;1.00;;;;;;5044937;28;20426;-79
2021/03/29 12:46:03;;;;;;;6.07;3.10;;;24.50;1.00;;;;;;5035023;28;20870;-77
2021/03/29 12:48:29;;;;;;;4.70;2.93;;;25.70;1.00;;;;;;5040798;28;20412;-78
2021/03/29 12:51:00;;;;;;;8.67;3.70;;;26.90;1.00;;;;;;5044677;28;20485;-78
2021/03/29 12:53:27;;;;;;;5.20;2.80;;;27.40;1.00;;;;;;5035446;28;21031;-79
2021/03/29 12:55:54;;;;;;;6.00;2.70;;;26.80;1.00;;;;;;5042367;28;20444;-78
2021/03/29 12:58:20;;;;;;;8.67;3.20;;;27.40;1.00;;;;;;5034197;28;20463;-79
2021/03/29 13:00:50;;;;;;;4.33;2.30;;;28.60;1.00;;;;;;5054384;28;20482;-77
2021/03/29 13:03:19;;;;;;;5.90;2.93;;;30.20;1.00;;;;;;5045728;28;20425;-79
2021/03/29 13:05:50;;;;;;;4.70;2.90;;;31.40;1.00;;;;;;5081425;28;20410;-79
2021/03/29 13:08:23;;;;;;;6.27;3.67;;;31.90;1.00;;;;;;5053684;28;20461;-80
2021/03/29 13:13:39;;;;;;;8.37;3.73;;;32.20;1.00;;;;;;5054890;28;20483;-80